sensor_id;sensor_type;location;lat;lon;timestamp;P1;durP1;ratioP1;P2;durP2;ratioP2
19219;SDS011;9744;49.364;7.484;2022-12-13T00:01:20;40.87;;;18.93;;
19219;SDS011;9744;49.364;7.484;2022-12-13T00:03:48;49.70;;;21.43;;
19219;SDS011;9744;49.364;7.484;2022-12-13T00:06:17;43.50;;;19.37;;
19219;SDS011;9744;49.364;7.484;2022-12-13T00:08:45;42.63;;;18.77;;
19219;SDS011;9744;49.364;7.484;2022-12-13T00:11:14;46.33;;;20.20;;
19219;SDS011;9744;49.364;7.484;2022-12-13T00:13:41;41.33;;;18.37;;
19219;SDS011;9744;49.364;7.484;2022-12-13T00:16:10;45.90;;;19.43;;
19219;SDS011;9744;49.364;7.484;2022-12-13T00:18:38;42.53;;;19.37;;
19219;SDS011;9744;49.364;7.484;2022-12-13T00:21:08;44.77;;;20.10;;
19219;SDS011;9744;49.364;7.484;2022-12-13T00:23:38;38.23;;;18.73;;
19219;SDS011;9744;49.364;7.484;2022-12-13T00:26:09;42.97;;;19.33;;
19219;SDS011;9744;49.364;7.484;2022-12-13T00:28:39;44.13;;;18.13;;
19219;SDS011;9744;49.364;7.484;2022-12-13T00:31:07;40.33;;;16.93;;
19219;SDS011;9744;49.364;7.484;2022-12-13T00:33:36;40.23;;;17.20;;
19219;SDS011;9744;49.364;7.484;2022-12-13T00:36:04;42.20;;;17.63;;
19219;SDS011;9744;49.364;7.484;2022-12-13T00:38:33;43.20;;;18.10;;
19219;SDS011;9744;49.364;7.484;2022-12-13T00:41:08;41.00;;;17.97;;
19219;SDS011;9744;49.364;7.484;2022-12-13T00:43:36;40.27;;;18.37;;
19219;SDS011;9744;49.364;7.484;2022-12-13T00:46:05;40.50;;;17.40;;
19219;SDS011;9744;49.364;7.484;2022-12-13T00:48:33;38.40;;;17.70;;
19219;SDS011;9744;49.364;7.484;2022-12-13T00:51:04;41.87;;;17.03;;
19219;SDS011;9744;49.364;7.484;2022-12-13T00:53:32;36.43;;;18.07;;
19219;SDS011;9744;49.364;7.484;2022-12-13T00:55:59;38.33;;;17.57;;
19219;SDS011;9744;49.364;7.484;2022-12-13T00:58:26;36.40;;;17.13;;
19219;SDS011;9744;49.364;7.484;2022-12-13T01:01:00;39.73;;;17.30;;
19219;SDS011;9744;49.364;7.484;2022-12-13T01:03:30;36.33;;;17.23;;
19219;SDS011;9744;49.364;7.484;2022-12-13T01:05:57;38.80;;;16.93;;
19219;SDS011;9744;49.364;7.484;2022-12-13T01:08:25;34.80;;;16.37;;
19219;SDS011;9744;49.364;7.484;2022-12-13T01:10:53;38.43;;;15.93;;
19219;SDS011;9744;49.364;7.484;2022-12-13T01:13:20;38.80;;;17.27;;
19219;SDS011;9744;49.364;7.484;2022-12-13T01:15:47;39.30;;;17.30;;
19219;SDS011;9744;49.364;7.484;2022-12-13T01:18:14;34.23;;;15.10;;
19219;SDS011;9744;49.364;7.484;2022-12-13T01:20:45;40.07;;;17.47;;
19219;SDS011;9744;49.364;7.484;2022-12-13T01:23:23;33.30;;;15.53;;
19219;SDS011;9744;49.364;7.484;2022-12-13T01:25:50;33.13;;;16.50;;
19219;SDS011;9744;49.364;7.484;2022-12-13T01:28:18;34.93;;;16.27;;
19219;SDS011;9744;49.364;7.484;2022-12-13T01:30:52;38.83;;;16.70;;
19219;SDS011;9744;49.364;7.484;2022-12-13T01:33:20;40.00;;;16.60;;
19219;SDS011;9744;49.364;7.484;2022-12-13T01:35:49;38.53;;;17.10;;
19219;SDS011;9744;49.364;7.484;2022-12-13T01:38:17;38.13;;;16.57;;
19219;SDS011;9744;49.364;7.484;2022-12-13T01:40:44;37.70;;;16.90;;
19219;SDS011;9744;49.364;7.484;2022-12-13T01:43:13;35.10;;;16.10;;
19219;SDS011;9744;49.364;7.484;2022-12-13T01:45:41;36.43;;;16.83;;
19219;SDS011;9744;49.364;7.484;2022-12-13T01:48:10;39.53;;;18.17;;
19219;SDS011;9744;49.364;7.484;2022-12-13T01:50:42;37.03;;;15.73;;
19219;SDS011;9744;49.364;7.484;2022-12-13T01:53:16;38.57;;;15.97;;
19219;SDS011;9744;49.364;7.484;2022-12-13T01:55:46;35.60;;;14.70;;
19219;SDS011;9744;49.364;7.484;2022-12-13T01:58:15;34.30;;;14.97;;
19219;SDS011;9744;49.364;7.484;2022-12-13T02:00:43;35.40;;;15.50;;
19219;SDS011;9744;49.364;7.484;2022-12-13T02:03:13;32.20;;;14.97;;
19219;SDS011;9744;49.364;7.484;2022-12-13T02:05:41;36.07;;;15.97;;
19219;SDS011;9744;49.364;7.484;2022-12-13T02:08:14;33.77;;;15.93;;
19219;SDS011;9744;49.364;7.484;2022-12-13T02:10:43;36.20;;;16.03;;
19219;SDS011;9744;49.364;7.484;2022-12-13T02:13:11;38.83;;;16.57;;
19219;SDS011;9744;49.364;7.484;2022-12-13T02:15:43;33.60;;;15.37;;
19219;SDS011;9744;49.364;7.484;2022-12-13T02:18:24;33.67;;;14.80;;
19219;SDS011;9744;49.364;7.484;2022-12-13T02:21:15;39.47;;;17.40;;
19219;SDS011;9744;49.364;7.484;2022-12-13T02:26:59;35.87;;;15.83;;
19219;SDS011;9744;49.364;7.484;2022-12-13T02:29:39;38.37;;;15.20;;
19219;SDS011;9744;49.364;7.484;2022-12-13T02:32:44;36.73;;;16.00;;
19219;SDS011;9744;49.364;7.484;2022-12-13T02:35:21;37.20;;;15.63;;
19219;SDS011;9744;49.364;7.484;2022-12-13T02:37:54;37.23;;;16.37;;
19219;SDS011;9744;49.364;7.484;2022-12-13T02:40:26;37.47;;;17.50;;
19219;SDS011;9744;49.364;7.484;2022-12-13T02:42:57;39.13;;;16.33;;
19219;SDS011;9744;49.364;7.484;2022-12-13T02:45:30;38.53;;;16.60;;
19219;SDS011;9744;49.364;7.484;2022-12-13T02:48:04;34.93;;;16.10;;
19219;SDS011;9744;49.364;7.484;2022-12-13T02:50:35;39.93;;;17.07;;
19219;SDS011;9744;49.364;7.484;2022-12-13T02:53:03;41.00;;;16.63;;
19219;SDS011;9744;49.364;7.484;2022-12-13T02:55:32;37.97;;;15.20;;
19219;SDS011;9744;49.364;7.484;2022-12-13T02:58:01;35.10;;;16.40;;
19219;SDS011;9744;49.364;7.484;2022-12-13T03:00:29;33.67;;;16.23;;
19219;SDS011;9744;49.364;7.484;2022-12-13T03:03:11;38.00;;;17.10;;
19219;SDS011;9744;49.364;7.484;2022-12-13T03:05:46;35.77;;;16.10;;
19219;SDS011;9744;49.364;7.484;2022-12-13T03:08:44;36.17;;;15.97;;
19219;SDS011;9744;49.364;7.484;2022-12-13T03:11:19;34.80;;;15.10;;
19219;SDS011;9744;49.364;7.484;2022-12-13T03:13:48;36.50;;;16.23;;
19219;SDS011;9744;49.364;7.484;2022-12-13T03:16:26;42.70;;;18.40;;
19219;SDS011;9744;49.364;7.484;2022-12-13T03:19:00;38.80;;;16.27;;
19219;SDS011;9744;49.364;7.484;2022-12-13T03:21:35;37.40;;;17.17;;
19219;SDS011;9744;49.364;7.484;2022-12-13T03:24:04;40.30;;;17.33;;
19219;SDS011;9744;49.364;7.484;2022-12-13T03:26:32;39.77;;;17.43;;
19219;SDS011;9744;49.364;7.484;2022-12-13T03:28:59;42.07;;;18.00;;
19219;SDS011;9744;49.364;7.484;2022-12-13T03:31:27;42.43;;;17.93;;
19219;SDS011;9744;49.364;7.484;2022-12-13T03:33:55;37.40;;;16.80;;
19219;SDS011;9744;49.364;7.484;2022-12-13T03:36:23;43.83;;;19.57;;
19219;SDS011;9744;49.364;7.484;2022-12-13T03:38:51;47.07;;;19.97;;
19219;SDS011;9744;49.364;7.484;2022-12-13T03:41:20;43.40;;;17.60;;
19219;SDS011;9744;49.364;7.484;2022-12-13T03:43:55;43.07;;;19.97;;
19219;SDS011;9744;49.364;7.484;2022-12-13T03:46:22;42.27;;;18.60;;
19219;SDS011;9744;49.364;7.484;2022-12-13T03:48:49;48.93;;;20.83;;
19219;SDS011;9744;49.364;7.484;2022-12-13T03:51:17;46.77;;;19.93;;
19219;SDS011;9744;49.364;7.484;2022-12-13T03:53:45;45.87;;;20.63;;
19219;SDS011;9744;49.364;7.484;2022-12-13T03:56:13;49.93;;;19.17;;
19219;SDS011;9744;49.364;7.484;2022-12-13T03:58:40;50.87;;;20.13;;
19219;SDS011;9744;49.364;7.484;2022-12-13T04:01:09;44.77;;;19.33;;
19219;SDS011;9744;49.364;7.484;2022-12-13T04:03:38;54.90;;;22.63;;
19219;SDS011;9744;49.364;7.484;2022-12-13T04:06:07;46.07;;;20.20;;
19219;SDS011;9744;49.364;7.484;2022-12-13T04:08:35;53.83;;;20.87;;
19219;SDS011;9744;49.364;7.484;2022-12-13T04:11:05;48.47;;;19.97;;
19219;SDS011;9744;49.364;7.484;2022-12-13T04:13:47;52.60;;;21.30;;
19219;SDS011;9744;49.364;7.484;2022-12-13T04:16:14;48.60;;;20.40;;
19219;SDS011;9744;49.364;7.484;2022-12-13T04:18:42;46.67;;;19.50;;
19219;SDS011;9744;49.364;7.484;2022-12-13T04:21:09;53.73;;;21.17;;
19219;SDS011;9744;49.364;7.484;2022-12-13T04:23:37;50.47;;;20.60;;
19219;SDS011;9744;49.364;7.484;2022-12-13T04:26:06;49.17;;;20.93;;
19219;SDS011;9744;49.364;7.484;2022-12-13T04:28:33;46.23;;;19.63;;
19219;SDS011;9744;49.364;7.484;2022-12-13T04:31:00;48.40;;;20.83;;
19219;SDS011;9744;49.364;7.484;2022-12-13T04:33:28;47.47;;;19.57;;
19219;SDS011;9744;49.364;7.484;2022-12-13T04:35:57;47.00;;;20.20;;
19219;SDS011;9744;49.364;7.484;2022-12-13T04:38:24;52.00;;;22.40;;
19219;SDS011;9744;49.364;7.484;2022-12-13T04:40:51;41.67;;;18.87;;
19219;SDS011;9744;49.364;7.484;2022-12-13T04:43:20;49.30;;;20.77;;
19219;SDS011;9744;49.364;7.484;2022-12-13T04:45:47;55.23;;;24.07;;
19219;SDS011;9744;49.364;7.484;2022-12-13T04:48:15;50.87;;;21.23;;
19219;SDS011;9744;49.364;7.484;2022-12-13T04:50:42;47.87;;;22.20;;
19219;SDS011;9744;49.364;7.484;2022-12-13T04:53:12;49.37;;;21.57;;
19219;SDS011;9744;49.364;7.484;2022-12-13T04:55:41;50.10;;;22.40;;
19219;SDS011;9744;49.364;7.484;2022-12-13T04:58:09;50.37;;;22.17;;
19219;SDS011;9744;49.364;7.484;2022-12-13T05:00:39;49.03;;;20.90;;
19219;SDS011;9744;49.364;7.484;2022-12-13T05:03:06;52.03;;;21.47;;
19219;SDS011;9744;49.364;7.484;2022-12-13T05:05:36;55.07;;;21.50;;
19219;SDS011;9744;49.364;7.484;2022-12-13T05:08:04;52.50;;;21.97;;
19219;SDS011;9744;49.364;7.484;2022-12-13T05:10:35;54.17;;;21.73;;
19219;SDS011;9744;49.364;7.484;2022-12-13T05:13:02;55.97;;;22.23;;
19219;SDS011;9744;49.364;7.484;2022-12-13T05:15:30;48.80;;;20.93;;
19219;SDS011;9744;49.364;7.484;2022-12-13T05:18:00;55.17;;;23.80;;
19219;SDS011;9744;49.364;7.484;2022-12-13T05:20:27;56.20;;;23.07;;
19219;SDS011;9744;49.364;7.484;2022-12-13T05:22:55;56.00;;;23.30;;
19219;SDS011;9744;49.364;7.484;2022-12-13T05:25:22;56.63;;;22.97;;
19219;SDS011;9744;49.364;7.484;2022-12-13T05:27:50;51.93;;;23.13;;
19219;SDS011;9744;49.364;7.484;2022-12-13T05:30:18;54.87;;;22.60;;
19219;SDS011;9744;49.364;7.484;2022-12-13T05:32:45;53.43;;;22.13;;
19219;SDS011;9744;49.364;7.484;2022-12-13T05:35:14;65.57;;;25.20;;
19219;SDS011;9744;49.364;7.484;2022-12-13T05:37:42;59.80;;;26.30;;
19219;SDS011;9744;49.364;7.484;2022-12-13T05:40:09;60.07;;;24.50;;
19219;SDS011;9744;49.364;7.484;2022-12-13T05:42:36;56.00;;;23.53;;
19219;SDS011;9744;49.364;7.484;2022-12-13T05:45:05;62.03;;;25.63;;
19219;SDS011;9744;49.364;7.484;2022-12-13T05:47:35;59.07;;;23.17;;
19219;SDS011;9744;49.364;7.484;2022-12-13T05:50:02;52.03;;;22.57;;
19219;SDS011;9744;49.364;7.484;2022-12-13T05:52:31;54.60;;;22.90;;
19219;SDS011;9744;49.364;7.484;2022-12-13T05:54:59;48.80;;;22.00;;
19219;SDS011;9744;49.364;7.484;2022-12-13T05:57:26;53.03;;;22.13;;
19219;SDS011;9744;49.364;7.484;2022-12-13T05:59:53;51.40;;;22.17;;
19219;SDS011;9744;49.364;7.484;2022-12-13T06:02:21;52.87;;;21.83;;
19219;SDS011;9744;49.364;7.484;2022-12-13T06:04:48;53.60;;;21.73;;
19219;SDS011;9744;49.364;7.484;2022-12-13T06:07:16;51.07;;;23.40;;
19219;SDS011;9744;49.364;7.484;2022-12-13T06:09:44;70.20;;;29.40;;
19219;SDS011;9744;49.364;7.484;2022-12-13T06:12:12;59.17;;;26.17;;
19219;SDS011;9744;49.364;7.484;2022-12-13T06:14:40;60.67;;;27.17;;
19219;SDS011;9744;49.364;7.484;2022-12-13T06:17:07;58.17;;;25.43;;
19219;SDS011;9744;49.364;7.484;2022-12-13T06:19:34;68.27;;;27.73;;
19219;SDS011;9744;49.364;7.484;2022-12-13T06:22:02;63.03;;;25.70;;
19219;SDS011;9744;49.364;7.484;2022-12-13T06:24:29;55.73;;;24.00;;
19219;SDS011;9744;49.364;7.484;2022-12-13T06:26:58;52.87;;;22.97;;
19219;SDS011;9744;49.364;7.484;2022-12-13T06:29:25;59.80;;;23.37;;
19219;SDS011;9744;49.364;7.484;2022-12-13T06:31:53;49.70;;;20.87;;
19219;SDS011;9744;49.364;7.484;2022-12-13T06:34:21;54.37;;;22.13;;
19219;SDS011;9744;49.364;7.484;2022-12-13T06:36:48;54.83;;;22.43;;
19219;SDS011;9744;49.364;7.484;2022-12-13T06:39:16;56.40;;;23.00;;
19219;SDS011;9744;49.364;7.484;2022-12-13T06:41:43;51.27;;;21.57;;
19219;SDS011;9744;49.364;7.484;2022-12-13T06:44:12;48.50;;;22.07;;
19219;SDS011;9744;49.364;7.484;2022-12-13T06:46:39;50.40;;;21.83;;
19219;SDS011;9744;49.364;7.484;2022-12-13T06:49:07;54.77;;;22.97;;
19219;SDS011;9744;49.364;7.484;2022-12-13T06:51:34;52.57;;;22.00;;
19219;SDS011;9744;49.364;7.484;2022-12-13T06:54:01;47.83;;;21.10;;
19219;SDS011;9744;49.364;7.484;2022-12-13T06:56:29;51.43;;;22.67;;
19219;SDS011;9744;49.364;7.484;2022-12-13T06:58:57;50.50;;;21.27;;
19219;SDS011;9744;49.364;7.484;2022-12-13T07:01:26;51.37;;;23.40;;
19219;SDS011;9744;49.364;7.484;2022-12-13T07:03:53;49.73;;;21.97;;
19219;SDS011;9744;49.364;7.484;2022-12-13T07:06:22;51.80;;;22.07;;
19219;SDS011;9744;49.364;7.484;2022-12-13T07:08:52;53.00;;;22.53;;
19219;SDS011;9744;49.364;7.484;2022-12-13T07:11:21;54.03;;;24.13;;
19219;SDS011;9744;49.364;7.484;2022-12-13T07:13:51;64.30;;;26.27;;
19219;SDS011;9744;49.364;7.484;2022-12-13T07:16:19;65.13;;;27.40;;
19219;SDS011;9744;49.364;7.484;2022-12-13T07:18:48;70.63;;;27.53;;
19219;SDS011;9744;49.364;7.484;2022-12-13T07:21:20;65.47;;;28.30;;
19219;SDS011;9744;49.364;7.484;2022-12-13T07:23:47;56.87;;;25.37;;
19219;SDS011;9744;49.364;7.484;2022-12-13T07:26:15;62.43;;;28.13;;
19219;SDS011;9744;49.364;7.484;2022-12-13T07:28:43;57.50;;;24.77;;
19219;SDS011;9744;49.364;7.484;2022-12-13T07:31:10;52.77;;;24.67;;
19219;SDS011;9744;49.364;7.484;2022-12-13T07:33:38;57.20;;;25.83;;
19219;SDS011;9744;49.364;7.484;2022-12-13T07:36:09;56.20;;;23.40;;
19219;SDS011;9744;49.364;7.484;2022-12-13T07:38:39;55.97;;;24.23;;
19219;SDS011;9744;49.364;7.484;2022-12-13T07:41:07;62.43;;;26.23;;
19219;SDS011;9744;49.364;7.484;2022-12-13T07:43:34;60.17;;;25.57;;
19219;SDS011;9744;49.364;7.484;2022-12-13T07:46:03;57.20;;;24.67;;
19219;SDS011;9744;49.364;7.484;2022-12-13T07:48:31;59.03;;;25.33;;
19219;SDS011;9744;49.364;7.484;2022-12-13T07:50:59;53.80;;;24.07;;
19219;SDS011;9744;49.364;7.484;2022-12-13T07:53:29;58.07;;;24.00;;
19219;SDS011;9744;49.364;7.484;2022-12-13T07:55:57;56.70;;;23.73;;
19219;SDS011;9744;49.364;7.484;2022-12-13T07:58:28;54.63;;;25.37;;
19219;SDS011;9744;49.364;7.484;2022-12-13T08:00:57;52.83;;;22.17;;
19219;SDS011;9744;49.364;7.484;2022-12-13T08:03:25;48.03;;;22.50;;
19219;SDS011;9744;49.364;7.484;2022-12-13T08:05:59;53.27;;;22.73;;
19219;SDS011;9744;49.364;7.484;2022-12-13T08:08:27;48.03;;;21.27;;
19219;SDS011;9744;49.364;7.484;2022-12-13T08:10:59;53.57;;;26.30;;
19219;SDS011;9744;49.364;7.484;2022-12-13T08:13:26;45.70;;;21.07;;
19219;SDS011;9744;49.364;7.484;2022-12-13T08:15:56;46.23;;;20.73;;
19219;SDS011;9744;49.364;7.484;2022-12-13T08:18:24;46.60;;;20.03;;
19219;SDS011;9744;49.364;7.484;2022-12-13T08:20:52;43.30;;;19.57;;
19219;SDS011;9744;49.364;7.484;2022-12-13T08:23:23;45.53;;;19.63;;
19219;SDS011;9744;49.364;7.484;2022-12-13T08:25:52;43.87;;;19.70;;
19219;SDS011;9744;49.364;7.484;2022-12-13T08:28:20;43.13;;;19.90;;
19219;SDS011;9744;49.364;7.484;2022-12-13T08:30:47;42.73;;;20.60;;
19219;SDS011;9744;49.364;7.484;2022-12-13T08:33:14;43.27;;;19.23;;
19219;SDS011;9744;49.364;7.484;2022-12-13T08:35:42;43.13;;;18.60;;
19219;SDS011;9744;49.364;7.484;2022-12-13T08:38:09;41.57;;;19.87;;
19219;SDS011;9744;49.364;7.484;2022-12-13T08:40:37;47.57;;;21.10;;
19219;SDS011;9744;49.364;7.484;2022-12-13T08:43:05;57.43;;;26.07;;
19219;SDS011;9744;49.364;7.484;2022-12-13T08:45:32;46.87;;;21.13;;
19219;SDS011;9744;49.364;7.484;2022-12-13T08:48:00;46.47;;;21.40;;
19219;SDS011;9744;49.364;7.484;2022-12-13T08:50:28;51.13;;;22.40;;
19219;SDS011;9744;49.364;7.484;2022-12-13T08:52:56;43.83;;;20.30;;
19219;SDS011;9744;49.364;7.484;2022-12-13T08:55:24;51.47;;;23.87;;
19219;SDS011;9744;49.364;7.484;2022-12-13T08:57:51;52.50;;;22.37;;
19219;SDS011;9744;49.364;7.484;2022-12-13T09:00:20;51.27;;;22.27;;
19219;SDS011;9744;49.364;7.484;2022-12-13T09:02:47;44.57;;;20.87;;
19219;SDS011;9744;49.364;7.484;2022-12-13T09:05:14;45.13;;;21.07;;
19219;SDS011;9744;49.364;7.484;2022-12-13T09:07:42;46.27;;;22.50;;
19219;SDS011;9744;49.364;7.484;2022-12-13T09:10:10;53.60;;;24.97;;
19219;SDS011;9744;49.364;7.484;2022-12-13T09:12:39;53.57;;;23.87;;
19219;SDS011;9744;49.364;7.484;2022-12-13T09:15:08;48.30;;;22.80;;
19219;SDS011;9744;49.364;7.484;2022-12-13T09:17:37;49.47;;;22.00;;
19219;SDS011;9744;49.364;7.484;2022-12-13T09:20:05;51.97;;;25.67;;
19219;SDS011;9744;49.364;7.484;2022-12-13T09:22:35;47.77;;;25.23;;
19219;SDS011;9744;49.364;7.484;2022-12-13T09:25:03;46.40;;;24.10;;
19219;SDS011;9744;49.364;7.484;2022-12-13T09:27:31;48.43;;;22.80;;
19219;SDS011;9744;49.364;7.484;2022-12-13T09:29:58;48.53;;;22.37;;
19219;SDS011;9744;49.364;7.484;2022-12-13T09:32:25;55.13;;;23.97;;
19219;SDS011;9744;49.364;7.484;2022-12-13T09:34:54;51.43;;;23.20;;
19219;SDS011;9744;49.364;7.484;2022-12-13T09:37:22;48.93;;;22.47;;
19219;SDS011;9744;49.364;7.484;2022-12-13T09:39:50;51.90;;;23.37;;
19219;SDS011;9744;49.364;7.484;2022-12-13T09:42:18;49.07;;;22.00;;
19219;SDS011;9744;49.364;7.484;2022-12-13T09:44:48;47.07;;;21.83;;
19219;SDS011;9744;49.364;7.484;2022-12-13T09:47:21;54.77;;;23.43;;
19219;SDS011;9744;49.364;7.484;2022-12-13T09:49:57;65.17;;;29.20;;
19219;SDS011;9744;49.364;7.484;2022-12-13T09:52:26;57.60;;;25.70;;
19219;SDS011;9744;49.364;7.484;2022-12-13T09:55:06;63.17;;;26.20;;
19219;SDS011;9744;49.364;7.484;2022-12-13T09:57:45;55.33;;;24.30;;
19219;SDS011;9744;49.364;7.484;2022-12-13T10:00:13;52.73;;;23.37;;
19219;SDS011;9744;49.364;7.484;2022-12-13T10:02:43;54.83;;;23.53;;
19219;SDS011;9744;49.364;7.484;2022-12-13T10:05:18;48.57;;;23.17;;
19219;SDS011;9744;49.364;7.484;2022-12-13T10:07:51;55.70;;;23.10;;
19219;SDS011;9744;49.364;7.484;2022-12-13T10:10:20;53.70;;;21.93;;
19219;SDS011;9744;49.364;7.484;2022-12-13T10:12:50;47.43;;;21.90;;
19219;SDS011;9744;49.364;7.484;2022-12-13T10:15:21;84.20;;;35.10;;
19219;SDS011;9744;49.364;7.484;2022-12-13T10:17:50;87.23;;;36.00;;
19219;SDS011;9744;49.364;7.484;2022-12-13T10:20:19;55.87;;;25.60;;
19219;SDS011;9744;49.364;7.484;2022-12-13T10:22:50;66.40;;;28.80;;
19219;SDS011;9744;49.364;7.484;2022-12-13T10:25:17;64.93;;;28.00;;
19219;SDS011;9744;49.364;7.484;2022-12-13T10:28:10;65.03;;;28.73;;
19219;SDS011;9744;49.364;7.484;2022-12-13T10:30:40;62.30;;;27.93;;
19219;SDS011;9744;49.364;7.484;2022-12-13T10:33:18;60.60;;;26.13;;
19219;SDS011;9744;49.364;7.484;2022-12-13T10:36:02;68.93;;;30.83;;
19219;SDS011;9744;49.364;7.484;2022-12-13T10:38:33;66.20;;;30.20;;
19219;SDS011;9744;49.364;7.484;2022-12-13T10:41:02;64.93;;;29.77;;
19219;SDS011;9744;49.364;7.484;2022-12-13T10:44:08;70.07;;;29.50;;
19219;SDS011;9744;49.364;7.484;2022-12-13T10:46:48;72.13;;;30.47;;
19219;SDS011;9744;49.364;7.484;2022-12-13T10:49:30;63.80;;;28.47;;
19219;SDS011;9744;49.364;7.484;2022-12-13T10:52:05;61.70;;;27.70;;
19219;SDS011;9744;49.364;7.484;2022-12-13T10:54:35;57.47;;;25.43;;
19219;SDS011;9744;49.364;7.484;2022-12-13T10:57:03;56.73;;;25.97;;
19219;SDS011;9744;49.364;7.484;2022-12-13T10:59:32;52.03;;;25.47;;
19219;SDS011;9744;49.364;7.484;2022-12-13T11:02:01;54.27;;;24.10;;
19219;SDS011;9744;49.364;7.484;2022-12-13T11:04:57;58.40;;;24.07;;
19219;SDS011;9744;49.364;7.484;2022-12-13T11:07:28;54.53;;;24.50;;
19219;SDS011;9744;49.364;7.484;2022-12-13T11:09:56;55.03;;;23.53;;
19219;SDS011;9744;49.364;7.484;2022-12-13T11:12:40;53.60;;;24.73;;
19219;SDS011;9744;49.364;7.484;2022-12-13T11:15:12;56.37;;;23.73;;
19219;SDS011;9744;49.364;7.484;2022-12-13T11:17:44;51.70;;;23.97;;
19219;SDS011;9744;49.364;7.484;2022-12-13T11:20:14;51.80;;;22.73;;
19219;SDS011;9744;49.364;7.484;2022-12-13T11:22:46;52.17;;;22.67;;
19219;SDS011;9744;49.364;7.484;2022-12-13T11:25:18;50.40;;;23.43;;
19219;SDS011;9744;49.364;7.484;2022-12-13T11:27:52;47.57;;;21.43;;
19219;SDS011;9744;49.364;7.484;2022-12-13T11:30:31;51.17;;;21.77;;
19219;SDS011;9744;49.364;7.484;2022-12-13T11:33:10;46.10;;;22.77;;
19219;SDS011;9744;49.364;7.484;2022-12-13T11:35:51;51.40;;;22.87;;
19219;SDS011;9744;49.364;7.484;2022-12-13T11:38:29;51.00;;;23.03;;
19219;SDS011;9744;49.364;7.484;2022-12-13T11:41:02;46.43;;;21.80;;
19219;SDS011;9744;49.364;7.484;2022-12-13T11:43:36;53.23;;;22.10;;
19219;SDS011;9744;49.364;7.484;2022-12-13T11:46:10;46.93;;;21.40;;
19219;SDS011;9744;49.364;7.484;2022-12-13T11:48:43;50.10;;;21.70;;
19219;SDS011;9744;49.364;7.484;2022-12-13T11:51:14;44.63;;;20.33;;
19219;SDS011;9744;49.364;7.484;2022-12-13T11:53:53;50.43;;;23.13;;
19219;SDS011;9744;49.364;7.484;2022-12-13T11:56:24;56.73;;;25.97;;
19219;SDS011;9744;49.364;7.484;2022-12-13T11:58:55;47.60;;;23.43;;
19219;SDS011;9744;49.364;7.484;2022-12-13T12:01:30;53.43;;;23.40;;
19219;SDS011;9744;49.364;7.484;2022-12-13T12:04:05;45.43;;;21.40;;
19219;SDS011;9744;49.364;7.484;2022-12-13T12:06:41;51.40;;;23.67;;
19219;SDS011;9744;49.364;7.484;2022-12-13T12:09:16;50.33;;;22.43;;
19219;SDS011;9744;49.364;7.484;2022-12-13T12:11:49;43.80;;;21.50;;
19219;SDS011;9744;49.364;7.484;2022-12-13T12:14:21;55.40;;;22.60;;
19219;SDS011;9744;49.364;7.484;2022-12-13T12:16:53;47.55;;;20.95;;
19219;SDS011;9744;49.364;7.484;2022-12-13T12:19:24;47.27;;;21.13;;
19219;SDS011;9744;49.364;7.484;2022-12-13T12:22:04;46.70;;;22.17;;
19219;SDS011;9744;49.364;7.484;2022-12-13T12:24:44;45.97;;;21.03;;
19219;SDS011;9744;49.364;7.484;2022-12-13T12:27:23;44.93;;;21.73;;
19219;SDS011;9744;49.364;7.484;2022-12-13T12:32:46;36.13;;;17.93;;
19219;SDS011;9744;49.364;7.484;2022-12-13T12:35:19;48.23;;;22.80;;
19219;SDS011;9744;49.364;7.484;2022-12-13T12:38:02;60.47;;;28.03;;
19219;SDS011;9744;49.364;7.484;2022-12-13T12:40:51;56.33;;;25.87;;
19219;SDS011;9744;49.364;7.484;2022-12-13T12:43:35;45.30;;;21.50;;
19219;SDS011;9744;49.364;7.484;2022-12-13T12:46:19;36.60;;;17.43;;
19219;SDS011;9744;49.364;7.484;2022-12-13T12:49:11;35.00;;;17.07;;
19219;SDS011;9744;49.364;7.484;2022-12-13T12:52:07;38.73;;;18.97;;
19219;SDS011;9744;49.364;7.484;2022-12-13T12:54:47;29.98;;;13.90;;
19219;SDS011;9744;49.364;7.484;2022-12-13T12:57:30;32.13;;;14.63;;
19219;SDS011;9744;49.364;7.484;2022-12-13T13:00:08;33.50;;;16.35;;
19219;SDS011;9744;49.364;7.484;2022-12-13T13:02:38;31.10;;;15.73;;
19219;SDS011;9744;49.364;7.484;2022-12-13T13:05:11;35.10;;;17.47;;
19219;SDS011;9744;49.364;7.484;2022-12-13T13:07:44;30.57;;;14.23;;
19219;SDS011;9744;49.364;7.484;2022-12-13T13:10:17;30.83;;;15.77;;
19219;SDS011;9744;49.364;7.484;2022-12-13T13:12:46;32.63;;;15.68;;
19219;SDS011;9744;49.364;7.484;2022-12-13T13:21:26;29.80;;;14.47;;
19219;SDS011;9744;49.364;7.484;2022-12-13T13:24:04;25.63;;;12.27;;
19219;SDS011;9744;49.364;7.484;2022-12-13T13:26:53;32.10;;;14.67;;
19219;SDS011;9744;49.364;7.484;2022-12-13T13:29:28;32.40;;;14.85;;
19219;SDS011;9744;49.364;7.484;2022-12-13T13:32:02;27.55;;;13.00;;
19219;SDS011;9744;49.364;7.484;2022-12-13T13:34:46;33.10;;;15.18;;
19219;SDS011;9744;49.364;7.484;2022-12-13T13:37:25;38.57;;;16.80;;
19219;SDS011;9744;49.364;7.484;2022-12-13T13:39:55;27.97;;;13.40;;
19219;SDS011;9744;49.364;7.484;2022-12-13T13:42:26;37.55;;;17.27;;
19219;SDS011;9744;49.364;7.484;2022-12-13T13:45:15;34.58;;;16.77;;
19219;SDS011;9744;49.364;7.484;2022-12-13T13:47:51;38.27;;;17.97;;
19219;SDS011;9744;49.364;7.484;2022-12-13T13:53:42;34.10;;;16.58;;
19219;SDS011;9744;49.364;7.484;2022-12-13T13:56:34;27.85;;;13.63;;
19219;SDS011;9744;49.364;7.484;2022-12-13T13:59:35;27.73;;;13.87;;
19219;SDS011;9744;49.364;7.484;2022-12-13T14:09:09;22.63;;;11.73;;
19219;SDS011;9744;49.364;7.484;2022-12-13T14:11:56;29.10;;;12.67;;
19219;SDS011;9744;49.364;7.484;2022-12-13T14:14:49;21.30;;;10.77;;
19219;SDS011;9744;49.364;7.484;2022-12-13T14:17:43;33.17;;;13.60;;
19219;SDS011;9744;49.364;7.484;2022-12-13T14:23:25;22.97;;;12.30;;
19219;SDS011;9744;49.364;7.484;2022-12-13T14:26:15;21.37;;;10.70;;
19219;SDS011;9744;49.364;7.484;2022-12-13T14:28:52;19.13;;;9.27;;
19219;SDS011;9744;49.364;7.484;2022-12-13T14:31:22;23.80;;;10.90;;
19219;SDS011;9744;49.364;7.484;2022-12-13T14:33:52;22.83;;;10.40;;
19219;SDS011;9744;49.364;7.484;2022-12-13T14:36:25;18.93;;;9.47;;
19219;SDS011;9744;49.364;7.484;2022-12-13T14:39:00;24.57;;;11.57;;
19219;SDS011;9744;49.364;7.484;2022-12-13T14:41:30;23.00;;;11.33;;
19219;SDS011;9744;49.364;7.484;2022-12-13T14:44:13;25.67;;;11.93;;
19219;SDS011;9744;49.364;7.484;2022-12-13T14:46:51;21.40;;;10.10;;
19219;SDS011;9744;49.364;7.484;2022-12-13T14:49:20;19.73;;;9.90;;
19219;SDS011;9744;49.364;7.484;2022-12-13T14:51:49;20.57;;;10.03;;
19219;SDS011;9744;49.364;7.484;2022-12-13T14:54:30;20.07;;;9.20;;
19219;SDS011;9744;49.364;7.484;2022-12-13T14:57:13;23.27;;;12.23;;
19219;SDS011;9744;49.364;7.484;2022-12-13T14:59:43;22.80;;;9.67;;
19219;SDS011;9744;49.364;7.484;2022-12-13T15:02:14;19.20;;;9.87;;
19219;SDS011;9744;49.364;7.484;2022-12-13T15:04:43;22.60;;;9.43;;
19219;SDS011;9744;49.364;7.484;2022-12-13T15:07:12;18.37;;;8.93;;
19219;SDS011;9744;49.364;7.484;2022-12-13T15:09:46;19.37;;;9.17;;
19219;SDS011;9744;49.364;7.484;2022-12-13T15:12:19;20.83;;;9.77;;
19219;SDS011;9744;49.364;7.484;2022-12-13T15:14:49;19.90;;;9.47;;
19219;SDS011;9744;49.364;7.484;2022-12-13T15:17:24;22.40;;;10.50;;
19219;SDS011;9744;49.364;7.484;2022-12-13T15:19:55;18.83;;;10.07;;
19219;SDS011;9744;49.364;7.484;2022-12-13T15:22:28;28.80;;;10.60;;
19219;SDS011;9744;49.364;7.484;2022-12-13T15:24:59;20.20;;;9.63;;
19219;SDS011;9744;49.364;7.484;2022-12-13T15:27:30;22.17;;;10.20;;